sensor_id;sensor_type;location;lat;lon;timestamp;P1;durP1;ratioP1;P2;durP2;ratioP2
26040;SDS011;13816;53.628;9.950;2023-08-12T00:00:11;3.77;;;3.40;;
26040;SDS011;13816;53.628;9.950;2023-08-12T00:02:43;9.30;;;3.50;;
26040;SDS011;13816;53.628;9.950;2023-08-12T00:05:12;13.67;;;3.47;;
26040;SDS011;13816;53.628;9.950;2023-08-12T00:07:40;5.23;;;3.40;;
26040;SDS011;13816;53.628;9.950;2023-08-12T00:10:08;8.40;;;3.20;;
26040;SDS011;13816;53.628;9.950;2023-08-12T00:12:35;6.63;;;3.07;;
26040;SDS011;13816;53.628;9.950;2023-08-12T00:15:03;8.13;;;3.40;;
26040;SDS011;13816;53.628;9.950;2023-08-12T00:17:33;8.00;;;3.47;;
26040;SDS011;13816;53.628;9.950;2023-08-12T00:20:01;8.43;;;3.60;;
26040;SDS011;13816;53.628;9.950;2023-08-12T00:22:32;6.93;;;3.60;;
26040;SDS011;13816;53.628;9.950;2023-08-12T00:25:00;12.80;;;3.40;;
26040;SDS011;13816;53.628;9.950;2023-08-12T00:27:27;4.43;;;3.77;;
26040;SDS011;13816;53.628;9.950;2023-08-12T00:29:55;10.30;;;3.67;;
26040;SDS011;13816;53.628;9.950;2023-08-12T00:32:22;3.43;;;3.13;;
26040;SDS011;13816;53.628;9.950;2023-08-12T00:34:50;4.03;;;2.90;;
26040;SDS011;13816;53.628;9.950;2023-08-12T00:37:17;5.17;;;2.97;;
26040;SDS011;13816;53.628;9.950;2023-08-12T00:39:45;10.83;;;3.53;;
26040;SDS011;13816;53.628;9.950;2023-08-12T00:42:13;11.67;;;3.73;;
26040;SDS011;13816;53.628;9.950;2023-08-12T00:44:40;8.67;;;3.60;;
26040;SDS011;13816;53.628;9.950;2023-08-12T00:47:07;4.97;;;3.00;;
26040;SDS011;13816;53.628;9.950;2023-08-12T00:49:36;4.83;;;3.03;;
26040;SDS011;13816;53.628;9.950;2023-08-12T00:52:04;6.10;;;3.80;;
26040;SDS011;13816;53.628;9.950;2023-08-12T00:54:32;6.53;;;3.53;;
26040;SDS011;13816;53.628;9.950;2023-08-12T00:56:59;4.50;;;3.20;;
26040;SDS011;13816;53.628;9.950;2023-08-12T00:59:27;7.97;;;3.63;;
26040;SDS011;13816;53.628;9.950;2023-08-12T01:01:58;7.83;;;3.40;;
26040;SDS011;13816;53.628;9.950;2023-08-12T01:04:25;9.10;;;3.07;;
26040;SDS011;13816;53.628;9.950;2023-08-12T01:06:53;7.40;;;3.30;;
26040;SDS011;13816;53.628;9.950;2023-08-12T01:09:20;4.67;;;3.27;;
26040;SDS011;13816;53.628;9.950;2023-08-12T01:14:27;6.10;;;3.40;;
26040;SDS011;13816;53.628;9.950;2023-08-12T01:16:59;5.97;;;2.97;;
26040;SDS011;13816;53.628;9.950;2023-08-12T01:19:32;4.63;;;3.23;;
26040;SDS011;13816;53.628;9.950;2023-08-12T01:22:03;6.07;;;3.20;;
26040;SDS011;13816;53.628;9.950;2023-08-12T01:24:38;6.30;;;3.53;;
26040;SDS011;13816;53.628;9.950;2023-08-12T01:27:06;8.20;;;3.30;;
26040;SDS011;13816;53.628;9.950;2023-08-12T01:29:35;6.77;;;3.03;;
26040;SDS011;13816;53.628;9.950;2023-08-12T01:34:47;5.00;;;2.93;;
26040;SDS011;13816;53.628;9.950;2023-08-12T01:37:22;3.90;;;3.40;;
26040;SDS011;13816;53.628;9.950;2023-08-12T01:39:50;6.63;;;3.00;;
26040;SDS011;13816;53.628;9.950;2023-08-12T01:42:20;3.50;;;3.20;;
26040;SDS011;13816;53.628;9.950;2023-08-12T01:44:47;4.30;;;3.23;;
26040;SDS011;13816;53.628;9.950;2023-08-12T01:47:15;7.10;;;3.50;;
26040;SDS011;13816;53.628;9.950;2023-08-12T01:49:42;8.87;;;3.60;;
26040;SDS011;13816;53.628;9.950;2023-08-12T01:52:10;5.23;;;3.47;;
26040;SDS011;13816;53.628;9.950;2023-08-12T01:54:37;4.50;;;3.50;;
26040;SDS011;13816;53.628;9.950;2023-08-12T01:57:05;8.53;;;3.30;;
26040;SDS011;13816;53.628;9.950;2023-08-12T01:59:35;9.13;;;3.90;;
26040;SDS011;13816;53.628;9.950;2023-08-12T02:02:03;5.43;;;3.23;;
26040;SDS011;13816;53.628;9.950;2023-08-12T02:04:31;6.57;;;3.97;;
26040;SDS011;13816;53.628;9.950;2023-08-12T02:06:58;5.50;;;3.43;;
26040;SDS011;13816;53.628;9.950;2023-08-12T02:09:26;7.30;;;3.93;;
26040;SDS011;13816;53.628;9.950;2023-08-12T02:11:53;5.80;;;4.07;;
26040;SDS011;13816;53.628;9.950;2023-08-12T02:14:21;6.43;;;3.57;;
26040;SDS011;13816;53.628;9.950;2023-08-12T02:16:48;5.83;;;3.60;;
26040;SDS011;13816;53.628;9.950;2023-08-12T02:19:16;4.93;;;3.70;;
26040;SDS011;13816;53.628;9.950;2023-08-12T02:21:43;10.43;;;4.50;;
26040;SDS011;13816;53.628;9.950;2023-08-12T02:24:10;6.67;;;3.93;;
26040;SDS011;13816;53.628;9.950;2023-08-12T02:26:38;6.07;;;3.73;;
26040;SDS011;13816;53.628;9.950;2023-08-12T02:29:05;6.90;;;3.90;;
26040;SDS011;13816;53.628;9.950;2023-08-12T02:31:33;4.10;;;3.30;;
26040;SDS011;13816;53.628;9.950;2023-08-12T02:34:00;7.73;;;4.20;;
26040;SDS011;13816;53.628;9.950;2023-08-12T02:36:27;9.00;;;3.90;;
26040;SDS011;13816;53.628;9.950;2023-08-12T02:38:56;11.50;;;4.23;;
26040;SDS011;13816;53.628;9.950;2023-08-12T02:41:23;8.47;;;3.80;;
26040;SDS011;13816;53.628;9.950;2023-08-12T02:43:50;9.40;;;4.27;;
26040;SDS011;13816;53.628;9.950;2023-08-12T02:46:18;3.93;;;3.47;;
26040;SDS011;13816;53.628;9.950;2023-08-12T02:48:45;6.77;;;4.10;;
26040;SDS011;13816;53.628;9.950;2023-08-12T02:51:16;5.90;;;3.80;;
26040;SDS011;13816;53.628;9.950;2023-08-12T02:53:43;12.73;;;3.93;;
26040;SDS011;13816;53.628;9.950;2023-08-12T02:56:10;7.07;;;4.50;;
26040;SDS011;13816;53.628;9.950;2023-08-12T02:58:38;5.60;;;4.20;;
26040;SDS011;13816;53.628;9.950;2023-08-12T03:01:05;7.70;;;3.83;;
26040;SDS011;13816;53.628;9.950;2023-08-12T03:03:33;6.33;;;3.90;;
26040;SDS011;13816;53.628;9.950;2023-08-12T03:06:00;7.90;;;4.07;;
26040;SDS011;13816;53.628;9.950;2023-08-12T03:08:29;6.77;;;3.80;;
26040;SDS011;13816;53.628;9.950;2023-08-12T03:11:00;10.40;;;4.57;;
26040;SDS011;13816;53.628;9.950;2023-08-12T03:13:29;8.20;;;4.33;;
26040;SDS011;13816;53.628;9.950;2023-08-12T03:15:57;7.57;;;4.77;;
26040;SDS011;13816;53.628;9.950;2023-08-12T03:18:28;5.73;;;4.00;;
26040;SDS011;13816;53.628;9.950;2023-08-12T03:20:55;7.90;;;4.30;;
26040;SDS011;13816;53.628;9.950;2023-08-12T03:23:24;6.23;;;4.27;;
26040;SDS011;13816;53.628;9.950;2023-08-12T03:25:51;6.70;;;3.80;;
26040;SDS011;13816;53.628;9.950;2023-08-12T03:28:20;4.47;;;3.70;;
26040;SDS011;13816;53.628;9.950;2023-08-12T03:30:51;8.80;;;4.43;;
26040;SDS011;13816;53.628;9.950;2023-08-12T03:33:21;6.03;;;4.60;;
26040;SDS011;13816;53.628;9.950;2023-08-12T03:35:49;4.93;;;3.90;;
26040;SDS011;13816;53.628;9.950;2023-08-12T03:38:17;5.70;;;3.83;;
26040;SDS011;13816;53.628;9.950;2023-08-12T03:40:45;4.53;;;4.13;;
26040;SDS011;13816;53.628;9.950;2023-08-12T03:43:15;5.40;;;4.17;;
26040;SDS011;13816;53.628;9.950;2023-08-12T03:45:44;6.70;;;4.67;;
26040;SDS011;13816;53.628;9.950;2023-08-12T03:48:14;9.17;;;4.00;;
26040;SDS011;13816;53.628;9.950;2023-08-12T03:50:41;6.40;;;3.97;;
26040;SDS011;13816;53.628;9.950;2023-08-12T03:53:09;5.90;;;4.00;;
26040;SDS011;13816;53.628;9.950;2023-08-12T03:55:38;6.03;;;5.40;;
26040;SDS011;13816;53.628;9.950;2023-08-12T03:58:07;8.13;;;4.77;;
26040;SDS011;13816;53.628;9.950;2023-08-12T04:00:35;5.00;;;4.30;;
26040;SDS011;13816;53.628;9.950;2023-08-12T04:03:07;7.93;;;4.40;;
26040;SDS011;13816;53.628;9.950;2023-08-12T04:05:34;4.80;;;4.30;;
26040;SDS011;13816;53.628;9.950;2023-08-12T04:08:02;5.60;;;4.50;;
26040;SDS011;13816;53.628;9.950;2023-08-12T04:10:29;8.90;;;4.63;;
26040;SDS011;13816;53.628;9.950;2023-08-12T04:12:57;6.50;;;4.47;;
26040;SDS011;13816;53.628;9.950;2023-08-12T04:15:24;11.23;;;4.67;;
26040;SDS011;13816;53.628;9.950;2023-08-12T04:17:52;12.10;;;4.87;;
26040;SDS011;13816;53.628;9.950;2023-08-12T04:20:19;6.90;;;4.00;;
26040;SDS011;13816;53.628;9.950;2023-08-12T04:22:47;4.90;;;4.23;;
26040;SDS011;13816;53.628;9.950;2023-08-12T04:25:15;4.50;;;4.10;;
26040;SDS011;13816;53.628;9.950;2023-08-12T04:27:43;5.30;;;4.77;;
26040;SDS011;13816;53.628;9.950;2023-08-12T04:30:11;5.57;;;4.97;;
26040;SDS011;13816;53.628;9.950;2023-08-12T04:32:38;4.10;;;3.60;;
26040;SDS011;13816;53.628;9.950;2023-08-12T04:35:07;12.20;;;4.23;;
26040;SDS011;13816;53.628;9.950;2023-08-12T04:37:36;5.93;;;4.17;;
26040;SDS011;13816;53.628;9.950;2023-08-12T04:40:05;5.77;;;4.33;;
26040;SDS011;13816;53.628;9.950;2023-08-12T04:42:35;5.17;;;4.37;;
26040;SDS011;13816;53.628;9.950;2023-08-12T04:45:04;5.67;;;4.00;;
26040;SDS011;13816;53.628;9.950;2023-08-12T04:47:33;7.03;;;4.93;;
26040;SDS011;13816;53.628;9.950;2023-08-12T04:50:01;5.10;;;4.60;;
26040;SDS011;13816;53.628;9.950;2023-08-12T04:52:30;7.27;;;4.37;;
26040;SDS011;13816;53.628;9.950;2023-08-12T04:54:57;9.00;;;4.40;;
26040;SDS011;13816;53.628;9.950;2023-08-12T04:57:26;5.57;;;4.57;;
26040;SDS011;13816;53.628;9.950;2023-08-12T04:59:54;5.67;;;4.60;;
26040;SDS011;13816;53.628;9.950;2023-08-12T05:02:22;6.27;;;4.50;;
26040;SDS011;13816;53.628;9.950;2023-08-12T05:04:51;8.43;;;4.37;;
26040;SDS011;13816;53.628;9.950;2023-08-12T05:07:20;5.00;;;4.20;;
26040;SDS011;13816;53.628;9.950;2023-08-12T05:09:48;12.30;;;5.00;;
26040;SDS011;13816;53.628;9.950;2023-08-12T05:12:15;10.10;;;5.40;;
26040;SDS011;13816;53.628;9.950;2023-08-12T05:14:43;5.63;;;4.10;;
26040;SDS011;13816;53.628;9.950;2023-08-12T05:17:10;8.47;;;4.20;;
26040;SDS011;13816;53.628;9.950;2023-08-12T05:19:38;6.00;;;4.20;;
26040;SDS011;13816;53.628;9.950;2023-08-12T05:22:06;8.07;;;4.30;;
26040;SDS011;13816;53.628;9.950;2023-08-12T05:24:34;9.37;;;4.87;;
26040;SDS011;13816;53.628;9.950;2023-08-12T05:27:01;8.77;;;4.93;;
26040;SDS011;13816;53.628;9.950;2023-08-12T05:29:29;6.47;;;4.53;;
26040;SDS011;13816;53.628;9.950;2023-08-12T05:31:57;7.67;;;4.60;;
26040;SDS011;13816;53.628;9.950;2023-08-12T05:34:24;11.80;;;5.70;;
26040;SDS011;13816;53.628;9.950;2023-08-12T05:36:53;5.50;;;5.00;;
26040;SDS011;13816;53.628;9.950;2023-08-12T05:39:20;7.77;;;5.50;;
26040;SDS011;13816;53.628;9.950;2023-08-12T05:41:48;6.40;;;4.87;;
26040;SDS011;13816;53.628;9.950;2023-08-12T05:44:15;8.67;;;4.87;;
26040;SDS011;13816;53.628;9.950;2023-08-12T05:46:43;6.90;;;5.00;;
26040;SDS011;13816;53.628;9.950;2023-08-12T05:49:11;9.03;;;5.07;;
26040;SDS011;13816;53.628;9.950;2023-08-12T05:51:38;6.53;;;5.00;;
26040;SDS011;13816;53.628;9.950;2023-08-12T05:54:06;6.00;;;5.37;;
26040;SDS011;13816;53.628;9.950;2023-08-12T05:56:33;6.33;;;4.77;;
26040;SDS011;13816;53.628;9.950;2023-08-12T05:59:01;9.73;;;5.90;;
26040;SDS011;13816;53.628;9.950;2023-08-12T06:01:28;7.87;;;4.80;;
26040;SDS011;13816;53.628;9.950;2023-08-12T06:03:55;7.30;;;4.73;;
26040;SDS011;13816;53.628;9.950;2023-08-12T06:06:23;8.10;;;5.33;;
26040;SDS011;13816;53.628;9.950;2023-08-12T06:08:50;8.10;;;5.27;;
26040;SDS011;13816;53.628;9.950;2023-08-12T06:11:18;7.30;;;4.60;;
26040;SDS011;13816;53.628;9.950;2023-08-12T06:13:48;7.70;;;6.03;;
26040;SDS011;13816;53.628;9.950;2023-08-12T06:16:16;8.33;;;5.50;;
26040;SDS011;13816;53.628;9.950;2023-08-12T06:18:44;8.03;;;5.43;;
26040;SDS011;13816;53.628;9.950;2023-08-12T06:21:11;6.07;;;5.47;;
26040;SDS011;13816;53.628;9.950;2023-08-12T06:23:39;9.40;;;6.20;;
26040;SDS011;13816;53.628;9.950;2023-08-12T06:26:07;10.23;;;6.57;;
26040;SDS011;13816;53.628;9.950;2023-08-12T06:28:34;8.40;;;5.93;;
26040;SDS011;13816;53.628;9.950;2023-08-12T06:31:02;6.53;;;5.73;;
26040;SDS011;13816;53.628;9.950;2023-08-12T06:33:29;6.93;;;6.17;;
26040;SDS011;13816;53.628;9.950;2023-08-12T06:36:00;11.60;;;5.83;;
26040;SDS011;13816;53.628;9.950;2023-08-12T06:38:27;6.70;;;5.13;;
26040;SDS011;13816;53.628;9.950;2023-08-12T06:40:55;8.80;;;6.23;;
26040;SDS011;13816;53.628;9.950;2023-08-12T06:43:22;8.10;;;6.20;;
26040;SDS011;13816;53.628;9.950;2023-08-12T06:45:51;10.50;;;6.00;;
26040;SDS011;13816;53.628;9.950;2023-08-12T06:48:18;10.30;;;5.83;;
26040;SDS011;13816;53.628;9.950;2023-08-12T06:50:46;7.20;;;5.70;;
26040;SDS011;13816;53.628;9.950;2023-08-12T06:53:13;8.40;;;6.90;;
26040;SDS011;13816;53.628;9.950;2023-08-12T06:55:44;9.87;;;8.33;;
26040;SDS011;13816;53.628;9.950;2023-08-12T06:58:12;7.77;;;6.97;;
26040;SDS011;13816;53.628;9.950;2023-08-12T07:00:41;9.50;;;7.87;;
26040;SDS011;13816;53.628;9.950;2023-08-12T07:03:08;10.47;;;8.60;;
26040;SDS011;13816;53.628;9.950;2023-08-12T07:05:36;9.90;;;7.50;;
26040;SDS011;13816;53.628;9.950;2023-08-12T07:08:03;9.20;;;8.20;;
26040;SDS011;13816;53.628;9.950;2023-08-12T07:10:31;15.43;;;10.00;;
26040;SDS011;13816;53.628;9.950;2023-08-12T07:12:58;13.57;;;9.27;;
26040;SDS011;13816;53.628;9.950;2023-08-12T07:15:26;14.57;;;8.90;;
26040;SDS011;13816;53.628;9.950;2023-08-12T07:17:53;13.77;;;8.60;;
26040;SDS011;13816;53.628;9.950;2023-08-12T07:20:21;9.60;;;8.27;;
26040;SDS011;13816;53.628;9.950;2023-08-12T07:22:48;9.43;;;8.47;;
26040;SDS011;13816;53.628;9.950;2023-08-12T07:25:16;9.93;;;8.93;;
26040;SDS011;13816;53.628;9.950;2023-08-12T07:27:43;17.10;;;10.20;;
26040;SDS011;13816;53.628;9.950;2023-08-12T07:30:11;10.37;;;9.37;;
26040;SDS011;13816;53.628;9.950;2023-08-12T07:32:39;11.70;;;9.00;;
26040;SDS011;13816;53.628;9.950;2023-08-12T07:35:08;11.80;;;8.83;;
26040;SDS011;13816;53.628;9.950;2023-08-12T07:37:36;13.70;;;9.57;;
26040;SDS011;13816;53.628;9.950;2023-08-12T07:40:03;12.07;;;9.67;;
26040;SDS011;13816;53.628;9.950;2023-08-12T07:42:31;12.13;;;10.50;;
26040;SDS011;13816;53.628;9.950;2023-08-12T07:44:58;13.57;;;9.60;;
26040;SDS011;13816;53.628;9.950;2023-08-12T07:47:25;10.87;;;9.13;;
26040;SDS011;13816;53.628;9.950;2023-08-12T07:49:53;12.20;;;9.87;;
26040;SDS011;13816;53.628;9.950;2023-08-12T07:52:21;12.30;;;9.20;;
26040;SDS011;13816;53.628;9.950;2023-08-12T07:54:48;15.53;;;9.10;;
26040;SDS011;13816;53.628;9.950;2023-08-12T07:57:15;13.70;;;10.00;;
26040;SDS011;13816;53.628;9.950;2023-08-12T07:59:43;11.90;;;8.90;;
26040;SDS011;13816;53.628;9.950;2023-08-12T08:02:10;15.33;;;10.13;;
26040;SDS011;13816;53.628;9.950;2023-08-12T08:04:38;10.33;;;9.00;;
26040;SDS011;13816;53.628;9.950;2023-08-12T08:07:06;17.17;;;9.37;;
26040;SDS011;13816;53.628;9.950;2023-08-12T08:09:33;13.20;;;9.00;;
26040;SDS011;13816;53.628;9.950;2023-08-12T08:12:01;14.73;;;8.80;;
26040;SDS011;13816;53.628;9.950;2023-08-12T08:14:28;10.40;;;9.17;;
26040;SDS011;13816;53.628;9.950;2023-08-12T08:16:56;14.03;;;9.30;;
26040;SDS011;13816;53.628;9.950;2023-08-12T08:19:24;13.27;;;8.80;;
26040;SDS011;13816;53.628;9.950;2023-08-12T08:21:56;12.03;;;9.43;;
26040;SDS011;13816;53.628;9.950;2023-08-12T08:24:23;15.90;;;9.73;;
26040;SDS011;13816;53.628;9.950;2023-08-12T08:26:51;13.33;;;8.30;;
26040;SDS011;13816;53.628;9.950;2023-08-12T08:29:18;11.73;;;8.60;;
26040;SDS011;13816;53.628;9.950;2023-08-12T08:31:46;11.70;;;9.30;;
26040;SDS011;13816;53.628;9.950;2023-08-12T08:34:14;10.70;;;8.40;;
26040;SDS011;13816;53.628;9.950;2023-08-12T08:36:42;18.63;;;8.87;;
26040;SDS011;13816;53.628;9.950;2023-08-12T08:39:09;12.70;;;9.60;;
26040;SDS011;13816;53.628;9.950;2023-08-12T08:41:38;13.03;;;8.67;;
26040;SDS011;13816;53.628;9.950;2023-08-12T08:44:07;15.27;;;9.93;;
26040;SDS011;13816;53.628;9.950;2023-08-12T08:46:35;9.90;;;8.03;;
26040;SDS011;13816;53.628;9.950;2023-08-12T08:49:03;13.27;;;9.07;;
26040;SDS011;13816;53.628;9.950;2023-08-12T08:51:31;11.17;;;7.87;;
26040;SDS011;13816;53.628;9.950;2023-08-12T08:53:59;12.30;;;9.37;;
26040;SDS011;13816;53.628;9.950;2023-08-12T08:56:29;13.07;;;7.60;;
26040;SDS011;13816;53.628;9.950;2023-08-12T08:58:58;10.17;;;6.97;;
26040;SDS011;13816;53.628;9.950;2023-08-12T09:01:26;9.53;;;7.17;;
26040;SDS011;13816;53.628;9.950;2023-08-12T09:03:54;12.33;;;7.67;;
26040;SDS011;13816;53.628;9.950;2023-08-12T09:06:22;10.40;;;6.90;;
26040;SDS011;13816;53.628;9.950;2023-08-12T09:08:51;10.93;;;6.57;;
26040;SDS011;13816;53.628;9.950;2023-08-12T09:11:19;10.20;;;6.97;;
26040;SDS011;13816;53.628;9.950;2023-08-12T09:13:47;7.80;;;7.00;;
26040;SDS011;13816;53.628;9.950;2023-08-12T09:16:15;13.93;;;6.70;;
26040;SDS011;13816;53.628;9.950;2023-08-12T09:18:42;7.93;;;7.07;;
26040;SDS011;13816;53.628;9.950;2023-08-12T09:21:11;11.40;;;7.73;;
26040;SDS011;13816;53.628;9.950;2023-08-12T09:23:41;12.73;;;7.90;;
26040;SDS011;13816;53.628;9.950;2023-08-12T09:26:12;9.07;;;7.60;;
26040;SDS011;13816;53.628;9.950;2023-08-12T09:28:41;13.17;;;8.03;;
26040;SDS011;13816;53.628;9.950;2023-08-12T09:31:12;11.77;;;7.17;;
26040;SDS011;13816;53.628;9.950;2023-08-12T09:33:48;11.60;;;7.70;;
26040;SDS011;13816;53.628;9.950;2023-08-12T09:36:16;14.90;;;8.43;;
26040;SDS011;13816;53.628;9.950;2023-08-12T09:38:44;11.03;;;6.87;;
26040;SDS011;13816;53.628;9.950;2023-08-12T09:41:11;10.37;;;6.80;;
26040;SDS011;13816;53.628;9.950;2023-08-12T09:43:42;9.77;;;7.17;;
26040;SDS011;13816;53.628;9.950;2023-08-12T09:46:10;10.87;;;8.20;;
26040;SDS011;13816;53.628;9.950;2023-08-12T09:48:39;9.90;;;7.37;;
26040;SDS011;13816;53.628;9.950;2023-08-12T09:51:06;10.33;;;7.57;;
26040;SDS011;13816;53.628;9.950;2023-08-12T09:53:34;14.43;;;7.50;;
26040;SDS011;13816;53.628;9.950;2023-08-12T09:56:05;8.33;;;7.20;;
26040;SDS011;13816;53.628;9.950;2023-08-12T09:58:35;8.03;;;7.13;;
26040;SDS011;13816;53.628;9.950;2023-08-12T10:01:03;10.60;;;6.77;;
26040;SDS011;13816;53.628;9.950;2023-08-12T10:03:32;10.70;;;7.57;;
26040;SDS011;13816;53.628;9.950;2023-08-12T10:06:01;10.37;;;7.03;;
26040;SDS011;13816;53.628;9.950;2023-08-12T10:08:29;10.20;;;7.80;;
26040;SDS011;13816;53.628;9.950;2023-08-12T10:10:57;9.17;;;7.47;;
26040;SDS011;13816;53.628;9.950;2023-08-12T10:13:38;7.60;;;6.80;;
26040;SDS011;13816;53.628;9.950;2023-08-12T10:16:06;8.20;;;6.27;;
26040;SDS011;13816;53.628;9.950;2023-08-12T10:18:34;7.57;;;6.83;;
26040;SDS011;13816;53.628;9.950;2023-08-12T10:21:02;8.90;;;6.40;;
26040;SDS011;13816;53.628;9.950;2023-08-12T10:23:29;9.47;;;6.53;;
26040;SDS011;13816;53.628;9.950;2023-08-12T10:25:57;9.83;;;6.30;;
26040;SDS011;13816;53.628;9.950;2023-08-12T10:28:25;11.00;;;6.50;;
26040;SDS011;13816;53.628;9.950;2023-08-12T10:30:53;9.40;;;5.90;;
26040;SDS011;13816;53.628;9.950;2023-08-12T10:33:20;9.43;;;6.93;;
26040;SDS011;13816;53.628;9.950;2023-08-12T10:35:48;8.60;;;6.20;;
26040;SDS011;13816;53.628;9.950;2023-08-12T10:38:17;9.37;;;6.73;;
26040;SDS011;13816;53.628;9.950;2023-08-12T10:40:45;6.70;;;6.00;;
26040;SDS011;13816;53.628;9.950;2023-08-12T10:43:14;6.80;;;5.80;;
26040;SDS011;13816;53.628;9.950;2023-08-12T10:45:48;8.33;;;5.83;;
26040;SDS011;13816;53.628;9.950;2023-08-12T10:48:17;6.17;;;5.57;;
26040;SDS011;13816;53.628;9.950;2023-08-12T10:50:46;9.30;;;5.80;;
26040;SDS011;13816;53.628;9.950;2023-08-12T10:53:28;9.10;;;5.83;;
26040;SDS011;13816;53.628;9.950;2023-08-12T10:55:57;6.23;;;5.57;;
26040;SDS011;13816;53.628;9.950;2023-08-12T10:58:26;8.03;;;6.60;;
26040;SDS011;13816;53.628;9.950;2023-08-12T11:00:57;8.47;;;6.40;;
26040;SDS011;13816;53.628;9.950;2023-08-12T11:03:25;8.63;;;6.93;;
26040;SDS011;13816;53.628;9.950;2023-08-12T11:05:53;10.60;;;7.70;;
26040;SDS011;13816;53.628;9.950;2023-08-12T11:08:28;10.53;;;8.20;;
26040;SDS011;13816;53.628;9.950;2023-08-12T11:10:55;13.23;;;10.00;;
26040;SDS011;13816;53.628;9.950;2023-08-12T11:13:29;15.77;;;9.40;;
26040;SDS011;13816;53.628;9.950;2023-08-12T11:16:05;16.10;;;9.20;;
26040;SDS011;13816;53.628;9.950;2023-08-12T11:18:33;9.67;;;8.47;;
26040;SDS011;13816;53.628;9.950;2023-08-12T11:21:00;12.33;;;8.67;;
26040;SDS011;13816;53.628;9.950;2023-08-12T11:23:27;12.30;;;8.67;;
26040;SDS011;13816;53.628;9.950;2023-08-12T11:25:55;12.10;;;8.20;;
26040;SDS011;13816;53.628;9.950;2023-08-12T11:28:23;13.47;;;8.67;;
26040;SDS011;13816;53.628;9.950;2023-08-12T11:30:51;10.40;;;8.30;;
26040;SDS011;13816;53.628;9.950;2023-08-12T11:33:18;11.20;;;8.40;;
26040;SDS011;13816;53.628;9.950;2023-08-12T11:35:46;7.10;;;6.40;;
26040;SDS011;13816;53.628;9.950;2023-08-12T11:38:13;12.63;;;5.80;;
26040;SDS011;13816;53.628;9.950;2023-08-12T11:40:42;7.00;;;6.30;;
26040;SDS011;13816;53.628;9.950;2023-08-12T11:43:10;6.93;;;6.07;;
26040;SDS011;13816;53.628;9.950;2023-08-12T11:45:41;6.93;;;5.77;;
26040;SDS011;13816;53.628;9.950;2023-08-12T11:48:09;6.83;;;5.70;;
26040;SDS011;13816;53.628;9.950;2023-08-12T11:50:37;7.53;;;6.10;;
26040;SDS011;13816;53.628;9.950;2023-08-12T11:53:05;10.93;;;6.37;;
26040;SDS011;13816;53.628;9.950;2023-08-12T11:55:36;7.90;;;5.53;;
26040;SDS011;13816;53.628;9.950;2023-08-12T11:58:03;5.70;;;5.17;;
26040;SDS011;13816;53.628;9.950;2023-08-12T12:00:30;8.03;;;5.77;;
26040;SDS011;13816;53.628;9.950;2023-08-12T12:02:58;11.17;;;6.30;;
26040;SDS011;13816;53.628;9.950;2023-08-12T12:05:29;15.40;;;9.43;;
26040;SDS011;13816;53.628;9.950;2023-08-12T12:07:58;14.00;;;8.13;;
26040;SDS011;13816;53.628;9.950;2023-08-12T12:10:27;13.40;;;7.63;;
26040;SDS011;13816;53.628;9.950;2023-08-12T12:12:59;12.00;;;7.57;;
26040;SDS011;13816;53.628;9.950;2023-08-12T12:15:37;12.83;;;7.93;;
26040;SDS011;13816;53.628;9.950;2023-08-12T12:18:10;9.17;;;7.30;;
26040;SDS011;13816;53.628;9.950;2023-08-12T12:20:56;11.00;;;7.10;;
26040;SDS011;13816;53.628;9.950;2023-08-12T12:23:30;12.17;;;8.13;;
26040;SDS011;13816;53.628;9.950;2023-08-12T12:25:59;12.63;;;8.00;;
26040;SDS011;13816;53.628;9.950;2023-08-12T12:28:26;10.93;;;7.50;;
26040;SDS011;13816;53.628;9.950;2023-08-12T12:30:54;9.60;;;7.17;;
26040;SDS011;13816;53.628;9.950;2023-08-12T12:33:21;9.80;;;7.83;;
26040;SDS011;13816;53.628;9.950;2023-08-12T12:35:49;10.80;;;7.73;;
26040;SDS011;13816;53.628;9.950;2023-08-12T12:38:23;8.40;;;6.13;;
26040;SDS011;13816;53.628;9.950;2023-08-12T12:40:51;10.30;;;7.50;;
26040;SDS011;13816;53.628;9.950;2023-08-12T12:43:18;8.40;;;6.47;;
26040;SDS011;13816;53.628;9.950;2023-08-12T12:45:45;8.67;;;7.00;;
26040;SDS011;13816;53.628;9.950;2023-08-12T12:48:13;7.17;;;6.47;;
26040;SDS011;13816;53.628;9.950;2023-08-12T12:50:40;8.70;;;7.10;;
26040;SDS011;13816;53.628;9.950;2023-08-12T12:53:08;7.50;;;6.30;;
26040;SDS011;13816;53.628;9.950;2023-08-12T12:55:35;6.33;;;5.73;;
26040;SDS011;13816;53.628;9.950;2023-08-12T12:58:03;7.80;;;6.53;;
26040;SDS011;13816;53.628;9.950;2023-08-12T13:00:30;7.30;;;6.43;;
26040;SDS011;13816;53.628;9.950;2023-08-12T13:02:57;9.07;;;6.40;;
26040;SDS011;13816;53.628;9.950;2023-08-12T13:05:26;9.00;;;7.30;;
26040;SDS011;13816;53.628;9.950;2023-08-12T13:07:54;7.20;;;6.17;;
26040;SDS011;13816;53.628;9.950;2023-08-12T13:10:24;7.03;;;6.40;;
26040;SDS011;13816;53.628;9.950;2023-08-12T13:12:52;9.00;;;7.40;;
26040;SDS011;13816;53.628;9.950;2023-08-12T13:15:19;8.00;;;6.43;;
26040;SDS011;13816;53.628;9.950;2023-08-12T13:17:46;7.90;;;7.10;;
26040;SDS011;13816;53.628;9.950;2023-08-12T13:20:14;7.43;;;6.57;;
26040;SDS011;13816;53.628;9.950;2023-08-12T13:22:41;9.13;;;6.63;;
26040;SDS011;13816;53.628;9.950;2023-08-12T13:25:09;8.73;;;6.00;;
26040;SDS011;13816;53.628;9.950;2023-08-12T13:27:40;7.80;;;6.00;;
26040;SDS011;13816;53.628;9.950;2023-08-12T13:30:07;9.03;;;6.00;;
26040;SDS011;13816;53.628;9.950;2023-08-12T13:32:35;7.30;;;6.17;;
26040;SDS011;13816;53.628;9.950;2023-08-12T13:35:03;8.37;;;6.07;;
26040;SDS011;13816;53.628;9.950;2023-08-12T13:37:32;7.63;;;5.80;;
26040;SDS011;13816;53.628;9.950;2023-08-12T13:40:00;7.40;;;6.17;;
26040;SDS011;13816;53.628;9.950;2023-08-12T13:42:28;9.77;;;6.50;;
26040;SDS011;13816;53.628;9.950;2023-08-12T13:44:56;7.03;;;6.27;;
26040;SDS011;13816;53.628;9.950;2023-08-12T13:47:27;7.50;;;5.50;;
26040;SDS011;13816;53.628;9.950;2023-08-12T13:49:55;6.60;;;5.83;;
26040;SDS011;13816;53.628;9.950;2023-08-12T13:52:23;12.43;;;8.03;;
26040;SDS011;13816;53.628;9.950;2023-08-12T13:54:50;7.57;;;6.83;;
26040;SDS011;13816;53.628;9.950;2023-08-12T13:57:18;7.77;;;6.77;;
26040;SDS011;13816;53.628;9.950;2023-08-12T13:59:45;13.10;;;8.50;;
26040;SDS011;13816;53.628;9.950;2023-08-12T14:02:14;10.07;;;8.23;;
26040;SDS011;13816;53.628;9.950;2023-08-12T14:04:42;9.50;;;8.23;;
26040;SDS011;13816;53.628;9.950;2023-08-12T14:07:21;12.03;;;8.47;;
26040;SDS011;13816;53.628;9.950;2023-08-12T14:09:52;12.03;;;8.83;;
26040;SDS011;13816;53.628;9.950;2023-08-12T14:12:20;13.07;;;8.70;;
26040;SDS011;13816;53.628;9.950;2023-08-12T14:14:48;12.60;;;9.50;;
26040;SDS011;13816;53.628;9.950;2023-08-12T14:17:15;15.17;;;8.83;;
26040;SDS011;13816;53.628;9.950;2023-08-12T14:19:47;13.93;;;9.90;;
26040;SDS011;13816;53.628;9.950;2023-08-12T14:22:16;12.17;;;10.70;;
26040;SDS011;13816;53.628;9.950;2023-08-12T14:24:44;13.10;;;10.90;;
26040;SDS011;13816;53.628;9.950;2023-08-12T14:27:12;11.87;;;10.60;;
26040;SDS011;13816;53.628;9.950;2023-08-12T14:29:46;11.33;;;10.10;;
26040;SDS011;13816;53.628;9.950;2023-08-12T14:32:48;12.33;;;11.13;;
26040;SDS011;13816;53.628;9.950;2023-08-12T14:35:17;16.43;;;11.03;;
26040;SDS011;13816;53.628;9.950;2023-08-12T14:38:03;15.00;;;11.77;;
26040;SDS011;13816;53.628;9.950;2023-08-12T14:40:31;14.40;;;12.23;;
26040;SDS011;13816;53.628;9.950;2023-08-12T14:42:58;13.93;;;12.47;;
26040;SDS011;13816;53.628;9.950;2023-08-12T14:45:27;14.00;;;11.80;;
26040;SDS011;13816;53.628;9.950;2023-08-12T14:47:55;13.97;;;11.67;;
26040;SDS011;13816;53.628;9.950;2023-08-12T14:50:23;13.03;;;11.63;;
26040;SDS011;13816;53.628;9.950;2023-08-12T14:52:50;14.70;;;11.73;;
26040;SDS011;13816;53.628;9.950;2023-08-12T14:55:17;13.07;;;10.70;;